Pemaquid, Maine
Current Conditions -  °F | °C
As of 3:18 AM on Monday 24 Nov 2014 (Local Time) from KIWI Reporting Station
Haze Haze  
Wind Chill: 33°   Ceiling: Unl
Heat Index: 33°   Visibility: 6mi
Dew Point: 31°   Wind: 0mph
Humidity: 92%   Direction: NA
Pressure: 30.06"   Gusts: NA
Location:  43.91°N, 69.52°W
Report Text: KIWI 240818Z AUTO 00000KT 6SM BR SCT006 01/M01 A3006 RMK AO2 T00061006
Loading
Personal Weather Stations






























Interactive Weather Map New forecast layout! Learn more

10-Day Weather Forecast

Advertisements
Track Severe Weather on mobile